F/V Galibier — PBIB — position and weather

sailwx.info

Track history (hours):
 
Tides and Currents Weather Stations Pressure Air Temp Water Temp Dewpoint Dewpoint Depression Visibility Wind Speed Wind Dir Waves Ship Positions

F/V Galibier

Last reported at 2016-Apr-27 15:10 UTC. Time now 2016-May-01 15:28 UTC.
Position N 50°01' E 000°18'.

Length 35 m.

MMSI: 244630637.

Date/timePositionNaut miles runAvg speedWind from/ knotsBaromVisibWave heightAir tempDewpointWater temp
2016-Apr-27 15:10N 50°01' E 000°18'6 9.7
2016-Apr-27 14:33N 49°58' E 000°10'6 6.0
2016-Apr-27 13:32N 49°55' E 000°02'2 1.6
2016-Apr-27 12:33N 49°53' E 000°03'2 1.8
2016-Apr-27 11:34N 49°52' E 000°01'7 7.0
2016-Apr-27 10:34N 49°48' W 000°08'1110.8
2016-Apr-27 09:34N 49°43' W 000°23'2 1.9
2016-Apr-27 08:33N 49°44' W 000°26'0 0.2
2016-Apr-27 07:34N 49°44' W 000°25'3 3.4
2016-Apr-27 06:33N 49°44' W 000°31'8 7.6
2016-Apr-27 05:33N 49°40' W 000°41'3 3.2
2016-Apr-27 04:34N 49°37' W 000°39'1 1.1
2016-Apr-27 03:34N 49°36' W 000°39'0 0.4
2016-Apr-27 02:33N 49°36' W 000°39'5 5.4
2016-Apr-27 01:33N 49°34' W 000°32'7 6.7
2016-Apr-27 00:34N 49°33' W 000°21'7 6.8
2016-Apr-26 23:34N 49°32' W 000°11'7 6.7
2016-Apr-26 22:33N 49°30' W 000°01'5 4.9
2016-Apr-26 21:34N 49°29' E 000°06'3 2.7
2016-Apr-26 20:34N 49°30' E 000°02'1110.5
2016-Apr-26 19:34N 49°36' W 000°11'10 9.8
2016-Apr-26 18:33N 49°43' W 000°22'4 3.8
2016-Apr-26 17:34N 49°46' W 000°25'1 1.4
2016-Apr-26 16:34N 49°47' W 000°26'1 1.1
2016-Apr-26 15:33N 49°47' W 000°25'2 1.8
2016-Apr-26 14:34N 49°48' W 000°22'3 3.4
2016-Apr-26 13:33N 49°48' W 000°17'1 1.5
2016-Apr-26 12:34N 49°48' W 000°19'0 0.5
2016-Apr-26 11:34N 49°48' W 000°19'3 3.4
2016-Apr-26 10:33N 49°52' W 000°20'2 2.2
2016-Apr-26 09:34N 49°52' W 000°23'1 0.5
2016-Apr-26 08:34N 49°52' W 000°23'1 0.5
2016-Apr-26 07:33N 49°52' W 000°23'1 0.5
2016-Apr-26 06:34N 49°53' W 000°23'1 0.7
2016-Apr-26 05:34N 49°52' W 000°22'1 0.8
2016-Apr-26 04:34N 49°53' W 000°21'0 0.3
2016-Apr-26 03:34N 49°53' W 000°21'5 4.7
2016-Apr-26 02:34N 49°54' W 000°14'8 8.3
2016-Apr-26 01:33N 49°56' W 000°01'8 7.8
2016-Apr-26 00:34N 49°58' E 000°10'  
2016-Apr-21 21:09N 50°43' E 001°35'3 4.4
2016-Apr-21 20:23N 50°41' E 001°31'65 3.0
2016-Apr-20 22:21N 49°52' E 000°23'7 1.7
2016-Apr-20 18:26N 49°47' E 000°17'910.4
2016-Apr-20 17:33N 49°48' E 000°04'9 8.4
2016-Apr-20 16:32N 49°50' W 000°09'8 8.0
2016-Apr-20 15:33N 49°52' W 000°21'2 2.1
2016-Apr-20 14:34N 49°53' W 000°24'2 2.4
2016-Apr-20 13:33N 49°54' W 000°27'6 5.5
2016-Apr-20 12:33N 49°57' W 000°35'2 2.1
2016-Apr-20 11:33N 49°57' W 000°31'1 1.2
2016-Apr-20 10:33N 49°57' W 000°30'0 0.4
2016-Apr-20 09:33N 49°57' W 000°30'1 1.0
2016-Apr-20 08:33N 49°57' W 000°31'0 0.5
2016-Apr-20 07:33N 49°57' W 000°32'1 0.8
2016-Apr-20 06:33N 49°57' W 000°33'1 1.4
2016-Apr-20 05:33N 49°58' W 000°35'2 1.7
2016-Apr-20 04:31N 49°58' W 000°37'5 5.0
2016-Apr-20 03:32N 49°58' W 000°45'14 7.2
2016-Apr-20 01:31N 49°58' W 001°07'6 6.1
2016-Apr-20 00:33N 49°59' W 001°16'9 6.1
2016-Apr-19 23:06N 49°59' W 001°30'4 7.8
2016-Apr-19 22:33N 49°59' W 001°37'3310.7
2016-Apr-19 19:29N 49°59' W 002°28'910.2
2016-Apr-19 18:33N 49°57' W 002°42'2 2.2
2016-Apr-19 17:32N 49°55' W 002°45'1 0.9
2016-Apr-19 16:33N 49°56' W 002°45'1 0.7
2016-Apr-19 15:04N 49°56' W 002°43'1 1.9
2016-Apr-19 14:33N 49°56' W 002°42'1 0.6
2016-Apr-19 13:33N 49°57' W 002°42'1 0.5
2016-Apr-19 11:26N 49°58' W 002°42'1 1.0
2016-Apr-19 10:28N 49°59' W 002°41'9 4.2
2016-Apr-19 08:16N 50°08' W 002°39'2 1.1
2016-Apr-19 06:34N 50°07' W 002°42'3 3.2
2016-Apr-19 05:32N 50°06' W 002°37'95 9.5
2016-Apr-18 19:32N 50°06' W 000°09'  
Track history (hours):
 
Tides and Currents Weather Stations Pressure Air Temp Water Temp Dewpoint Dewpoint Depression Visibility Wind Speed Wind Dir Waves Ship Positions

F/V Galibier

Last reported at 2016-Apr-27 15:10 UTC. Time now 2016-May-01 15:28 UTC.
Position N 50°01' E 000°18'.

Length 35 m.

MMSI: 244630637.

Date/timePositionNaut miles runAvg speedWind from/ knotsBaromVisibWave heightAir tempDewpointWater temp
2016-Apr-27 15:10N 50°01' E 000°18'6 9.7
2016-Apr-27 14:33N 49°58' E 000°10'6 6.0
2016-Apr-27 13:32N 49°55' E 000°02'2 1.6
2016-Apr-27 12:33N 49°53' E 000°03'2 1.8
2016-Apr-27 11:34N 49°52' E 000°01'7 7.0
2016-Apr-27 10:34N 49°48' W 000°08'1110.8
2016-Apr-27 09:34N 49°43' W 000°23'2 1.9
2016-Apr-27 08:33N 49°44' W 000°26'0 0.2
2016-Apr-27 07:34N 49°44' W 000°25'3 3.4
2016-Apr-27 06:33N 49°44' W 000°31'8 7.6
2016-Apr-27 05:33N 49°40' W 000°41'3 3.2
2016-Apr-27 04:34N 49°37' W 000°39'1 1.1
2016-Apr-27 03:34N 49°36' W 000°39'0 0.4
2016-Apr-27 02:33N 49°36' W 000°39'5 5.4
2016-Apr-27 01:33N 49°34' W 000°32'7 6.7
2016-Apr-27 00:34N 49°33' W 000°21'7 6.8
2016-Apr-26 23:34N 49°32' W 000°11'7 6.7
2016-Apr-26 22:33N 49°30' W 000°01'5 4.9
2016-Apr-26 21:34N 49°29' E 000°06'3 2.7
2016-Apr-26 20:34N 49°30' E 000°02'1110.5
2016-Apr-26 19:34N 49°36' W 000°11'10 9.8
2016-Apr-26 18:33N 49°43' W 000°22'4 3.8
2016-Apr-26 17:34N 49°46' W 000°25'1 1.4
2016-Apr-26 16:34N 49°47' W 000°26'1 1.1
2016-Apr-26 15:33N 49°47' W 000°25'2 1.8
2016-Apr-26 14:34N 49°48' W 000°22'3 3.4
2016-Apr-26 13:33N 49°48' W 000°17'1 1.5
2016-Apr-26 12:34N 49°48' W 000°19'0 0.5
2016-Apr-26 11:34N 49°48' W 000°19'3 3.4
2016-Apr-26 10:33N 49°52' W 000°20'2 2.2
2016-Apr-26 09:34N 49°52' W 000°23'1 0.5
2016-Apr-26 08:34N 49°52' W 000°23'1 0.5
2016-Apr-26 07:33N 49°52' W 000°23'1 0.5
2016-Apr-26 06:34N 49°53' W 000°23'1 0.7
2016-Apr-26 05:34N 49°52' W 000°22'1 0.8
2016-Apr-26 04:34N 49°53' W 000°21'0 0.3
2016-Apr-26 03:34N 49°53' W 000°21'5 4.7
2016-Apr-26 02:34N 49°54' W 000°14'8 8.3
2016-Apr-26 01:33N 49°56' W 000°01'8 7.8
2016-Apr-26 00:34N 49°58' E 000°10'  
2016-Apr-21 21:09N 50°43' E 001°35'3 4.4
2016-Apr-21 20:23N 50°41' E 001°31'65 3.0
2016-Apr-20 22:21N 49°52' E 000°23'7 1.7
2016-Apr-20 18:26N 49°47' E 000°17'910.4
2016-Apr-20 17:33N 49°48' E 000°04'9 8.4
2016-Apr-20 16:32N 49°50' W 000°09'8 8.0
2016-Apr-20 15:33N 49°52' W 000°21'2 2.1
2016-Apr-20 14:34N 49°53' W 000°24'2 2.4
2016-Apr-20 13:33N 49°54' W 000°27'6 5.5
2016-Apr-20 12:33N 49°57' W 000°35'2 2.1
2016-Apr-20 11:33N 49°57' W 000°31'1 1.2
2016-Apr-20 10:33N 49°57' W 000°30'0 0.4
2016-Apr-20 09:33N 49°57' W 000°30'1 1.0
2016-Apr-20 08:33N 49°57' W 000°31'0 0.5
2016-Apr-20 07:33N 49°57' W 000°32'1 0.8
2016-Apr-20 06:33N 49°57' W 000°33'1 1.4
2016-Apr-20 05:33N 49°58' W 000°35'2 1.7
2016-Apr-20 04:31N 49°58' W 000°37'5 5.0
2016-Apr-20 03:32N 49°58' W 000°45'14 7.2
2016-Apr-20 01:31N 49°58' W 001°07'6 6.1
2016-Apr-20 00:33N 49°59' W 001°16'9 6.1
2016-Apr-19 23:06N 49°59' W 001°30'4 7.8
2016-Apr-19 22:33N 49°59' W 001°37'3310.7
2016-Apr-19 19:29N 49°59' W 002°28'910.2
2016-Apr-19 18:33N 49°57' W 002°42'2 2.2
2016-Apr-19 17:32N 49°55' W 002°45'1 0.9
2016-Apr-19 16:33N 49°56' W 002°45'1 0.7
2016-Apr-19 15:04N 49°56' W 002°43'1 1.9
2016-Apr-19 14:33N 49°56' W 002°42'1 0.6
2016-Apr-19 13:33N 49°57' W 002°42'1 0.5
2016-Apr-19 11:26N 49°58' W 002°42'1 1.0
2016-Apr-19 10:28N 49°59' W 002°41'9 4.2
2016-Apr-19 08:16N 50°08' W 002°39'2 1.1
2016-Apr-19 06:34N 50°07' W 002°42'3 3.2
2016-Apr-19 05:32N 50°06' W 002°37'95 9.5
2016-Apr-18 19:32N 50°06' W 000°09'  

Dump ship's entire track history